Portada
METAR-TAF:

METAR-TAF

Aeroports :

Nakhon Si Thammarat, Tailàndia

latitud: 8-32-22N, longitud: 99-56-41E, altitud: 4 m

Observació

L'informe es va fer fa 23 minuts, a les 07:00 UTC
Vent 10 kt del Est/Nord-Est, variant entre Nord-Est i Est
Temperatura 34°C
Humitat 53%
Pressió 1007 hPa
Visibilitat 10 km o més
Escasses núvols a una alçada de 1800 ft

METAR: VTSF 260700Z 07010KT 040V100 9999 FEW018 34/23 Q1007 NOSIG

Hora: 14:23 (07:23 UTC)

Pronòstic

L'informe es va fer fa 2 hores i 23 minuts, a les 05:00 UTC
Pronòstic vàlid del 26 a les 06 UTC al 27 a les 06 UTC
Vent 6 kt del Nord/Nord-Est
Visibilitat 10 km o més
Escasses núvols a una alçada de 2000 ft

TAF: VTSF 260500Z 2606/2706 03006KT 9999 FEW020

Observacions i pronòstics meteorològics de més de 4000 aeroports (METAR i TAF).

Les estacions disponibles són els punts grocs i vermells al mapa.

Posi el ratolí al punt desitjat per veure el nom de l'estació.

Feu clic per veure les observacions i els pronòstics meteorològics.

Per canviar el mapa: feu clic els botons verds amb una creu de color negre per apropar; al botó verd amb un guió per allunyar la imatge; o en les fletxes verdes per a mapes adjacents.


METAR-TAF: